sensor_id;sensor_type;location;lat;lon;timestamp;noise_LAeq;noise_LA_min;noise_LA_max;noise_LA01;noise_LA95
40465;Laerm;30489;48.982;8.394;2023-05-29T00:01:34;42.07;40.80;43.09;;
40465;Laerm;30489;48.982;8.394;2023-05-29T00:03:45;42.06;40.43;43.14;;
40465;Laerm;30489;48.982;8.394;2023-05-29T00:05:56;42.06;40.80;43.19;;
40465;Laerm;30489;48.982;8.394;2023-05-29T00:08:06;42.08;40.89;43.14;;
40465;Laerm;30489;48.982;8.394;2023-05-29T00:10:16;42.07;40.71;43.14;;
40465;Laerm;30489;48.982;8.394;2023-05-29T00:12:26;42.06;40.98;43.05;;
40465;Laerm;30489;48.982;8.394;2023-05-29T00:14:37;42.07;40.71;43.14;;
40465;Laerm;30489;48.982;8.394;2023-05-29T00:16:47;42.07;40.80;43.09;;
40465;Laerm;30489;48.982;8.394;2023-05-29T00:18:58;42.08;40.43;43.24;;
40465;Laerm;30489;48.982;8.394;2023-05-29T00:21:09;42.07;40.53;43.29;;
40465;Laerm;30489;48.982;8.394;2023-05-29T00:23:19;42.06;40.62;43.09;;
40465;Laerm;30489;48.982;8.394;2023-05-29T00:25:29;42.06;40.89;43.04;;
40465;Laerm;30489;48.982;8.394;2023-05-29T00:27:39;42.06;40.80;43.24;;
40465;Laerm;30489;48.982;8.394;2023-05-29T00:29:50;42.06;40.62;43.04;;
40465;Laerm;30489;48.982;8.394;2023-05-29T00:32:00;42.07;40.33;43.19;;
40465;Laerm;30489;48.982;8.394;2023-05-29T00:34:10;42.05;40.89;43.14;;
40465;Laerm;30489;48.982;8.394;2023-05-29T00:36:21;42.06;40.89;43.19;;
40465;Laerm;30489;48.982;8.394;2023-05-29T00:38:31;42.06;40.89;43.14;;
40465;Laerm;30489;48.982;8.394;2023-05-29T00:40:41;42.06;40.62;43.44;;
40465;Laerm;30489;48.982;8.394;2023-05-29T00:42:52;42.06;40.71;43.24;;
40465;Laerm;30489;48.982;8.394;2023-05-29T00:45:02;42.06;40.98;43.24;;
40465;Laerm;30489;48.982;8.394;2023-05-29T00:47:12;42.07;40.80;43.05;;
40465;Laerm;30489;48.982;8.394;2023-05-29T00:49:23;42.07;40.80;43.19;;
40465;Laerm;30489;48.982;8.394;2023-05-29T00:51:34;42.06;40.80;43.24;;
40465;Laerm;30489;48.982;8.394;2023-05-29T00:53:44;42.07;40.80;43.19;;
40465;Laerm;30489;48.982;8.394;2023-05-29T00:55:55;42.07;40.80;43.19;;
40465;Laerm;30489;48.982;8.394;2023-05-29T00:58:05;42.07;40.89;43.44;;
40465;Laerm;30489;48.982;8.394;2023-05-29T01:00:15;42.06;40.80;43.34;;
40465;Laerm;30489;48.982;8.394;2023-05-29T01:02:27;42.07;40.80;43.09;;
40465;Laerm;30489;48.982;8.394;2023-05-29T01:04:39;42.07;40.23;43.09;;
40465;Laerm;30489;48.982;8.394;2023-05-29T01:06:49;42.06;40.71;43.19;;
40465;Laerm;30489;48.982;8.394;2023-05-29T01:08:59;42.08;40.89;43.29;;
40465;Laerm;30489;48.982;8.394;2023-05-29T01:11:12;42.06;40.80;43.14;;
40465;Laerm;30489;48.982;8.394;2023-05-29T01:13:27;42.05;40.71;43.04;;
40465;Laerm;30489;48.982;8.394;2023-05-29T01:18:04;42.05;40.62;43.19;;
40465;Laerm;30489;48.982;8.394;2023-05-29T01:22:46;42.04;40.71;43.19;;
40465;Laerm;30489;48.982;8.394;2023-05-29T01:27:35;42.04;40.62;43.05;;
40465;Laerm;30489;48.982;8.394;2023-05-29T01:29:47;42.05;40.33;43.09;;
40465;Laerm;30489;48.982;8.394;2023-05-29T01:31:59;42.06;40.89;43.19;;
40465;Laerm;30489;48.982;8.394;2023-05-29T01:34:11;42.05;40.71;43.34;;
40465;Laerm;30489;48.982;8.394;2023-05-29T01:36:22;42.07;40.71;43.09;;
40465;Laerm;30489;48.982;8.394;2023-05-29T01:38:32;42.07;40.80;43.14;;
40465;Laerm;30489;48.982;8.394;2023-05-29T01:40:42;42.06;40.80;43.09;;
40465;Laerm;30489;48.982;8.394;2023-05-29T01:42:53;42.06;40.98;43.14;;
40465;Laerm;30489;48.982;8.394;2023-05-29T01:45:03;42.06;40.71;43.09;;
40465;Laerm;30489;48.982;8.394;2023-05-29T01:47:16;42.05;40.89;43.19;;
40465;Laerm;30489;48.982;8.394;2023-05-29T01:49:26;42.03;40.88;42.93;;
40465;Laerm;30489;48.982;8.394;2023-05-29T01:51:38;42.04;40.71;42.98;;
40465;Laerm;30489;48.982;8.394;2023-05-29T01:53:49;42.04;40.62;43.19;;
40465;Laerm;30489;48.982;8.394;2023-05-29T01:55:59;42.04;40.80;43.34;;
40465;Laerm;30489;48.982;8.394;2023-05-29T01:58:10;42.03;40.80;43.04;;
40465;Laerm;30489;48.982;8.394;2023-05-29T02:00:20;42.02;40.80;42.98;;
40465;Laerm;30489;48.982;8.394;2023-05-29T02:02:31;42.03;40.71;43.19;;
40465;Laerm;30489;48.982;8.394;2023-05-29T02:04:41;42.02;40.80;43.24;;
40465;Laerm;30489;48.982;8.394;2023-05-29T02:06:51;42.03;40.43;42.98;;
40465;Laerm;30489;48.982;8.394;2023-05-29T02:09:02;42.02;40.79;43.29;;
40465;Laerm;30489;48.982;8.394;2023-05-29T02:11:13;42.01;40.80;43.09;;
40465;Laerm;30489;48.982;8.394;2023-05-29T02:13:23;42.01;40.43;43.04;;
40465;Laerm;30489;48.982;8.394;2023-05-29T02:15:33;42.01;40.71;42.98;;
40465;Laerm;30489;48.982;8.394;2023-05-29T02:17:43;42.02;40.62;42.98;;
40465;Laerm;30489;48.982;8.394;2023-05-29T02:19:54;41.99;40.96;43.19;;
40465;Laerm;30489;48.982;8.394;2023-05-29T02:22:04;41.97;40.80;43.09;;
40465;Laerm;30489;48.982;8.394;2023-05-29T02:24:15;41.96;40.62;42.98;;
40465;Laerm;30489;48.982;8.394;2023-05-29T02:26:25;41.96;40.71;42.93;;
40465;Laerm;30489;48.982;8.394;2023-05-29T02:28:36;41.93;40.80;42.88;;
40465;Laerm;30489;48.982;8.394;2023-05-29T02:30:46;41.93;40.71;42.88;;
40465;Laerm;30489;48.982;8.394;2023-05-29T02:32:56;41.93;40.80;42.93;;
40465;Laerm;30489;48.982;8.394;2023-05-29T02:35:06;41.92;40.71;43.04;;
40465;Laerm;30489;48.982;8.394;2023-05-29T02:37:17;41.93;40.62;43.04;;
40465;Laerm;30489;48.982;8.394;2023-05-29T02:39:27;41.93;40.53;42.82;;
40465;Laerm;30489;48.982;8.394;2023-05-29T02:41:38;41.91;40.53;43.04;;
40465;Laerm;30489;48.982;8.394;2023-05-29T02:43:48;41.91;40.62;42.98;;
40465;Laerm;30489;48.982;8.394;2023-05-29T02:45:58;41.88;40.71;42.88;;
40465;Laerm;30489;48.982;8.394;2023-05-29T02:48:08;41.89;40.53;42.98;;
40465;Laerm;30489;48.982;8.394;2023-05-29T02:50:19;41.88;40.53;43.04;;
40465;Laerm;30489;48.982;8.394;2023-05-29T02:52:29;41.86;40.33;43.09;;
40465;Laerm;30489;48.982;8.394;2023-05-29T02:54:42;41.87;40.62;42.98;;
40465;Laerm;30489;48.982;8.394;2023-05-29T02:56:53;41.86;40.62;43.04;;
40465;Laerm;30489;48.982;8.394;2023-05-29T02:59:03;41.87;40.62;43.14;;
40465;Laerm;30489;48.982;8.394;2023-05-29T03:01:13;41.85;40.71;42.93;;
40465;Laerm;30489;48.982;8.394;2023-05-29T03:03:24;41.87;40.43;42.98;;
40465;Laerm;30489;48.982;8.394;2023-05-29T03:05:34;41.85;40.43;42.98;;
40465;Laerm;30489;48.982;8.394;2023-05-29T03:07:44;41.83;40.62;43.04;;
40465;Laerm;30489;48.982;8.394;2023-05-29T03:09:55;41.83;40.53;42.82;;
40465;Laerm;30489;48.982;8.394;2023-05-29T03:12:06;41.83;40.62;42.88;;
40465;Laerm;30489;48.982;8.394;2023-05-29T03:14:17;41.83;40.62;42.88;;
40465;Laerm;30489;48.982;8.394;2023-05-29T03:16:28;41.82;39.92;43.04;;
40465;Laerm;30489;48.982;8.394;2023-05-29T03:18:39;41.81;40.43;43.04;;
40465;Laerm;30489;48.982;8.394;2023-05-29T03:20:49;41.80;40.33;42.98;;
40465;Laerm;30489;48.982;8.394;2023-05-29T03:23:00;41.78;40.62;42.82;;
40465;Laerm;30489;48.982;8.394;2023-05-29T03:25:10;41.75;40.43;42.65;;
40465;Laerm;30489;48.982;8.394;2023-05-29T03:27:20;41.73;40.43;42.88;;
40465;Laerm;30489;48.982;8.394;2023-05-29T03:29:33;41.72;40.43;42.88;;
40465;Laerm;30489;48.982;8.394;2023-05-29T03:31:44;41.71;40.36;45.33;;
40465;Laerm;30489;48.982;8.394;2023-05-29T03:33:54;44.48;40.03;75.35;;
40465;Laerm;30489;48.982;8.394;2023-05-29T03:36:04;41.67;40.23;48.02;;
40465;Laerm;30489;48.982;8.394;2023-05-29T03:38:15;41.63;40.13;46.15;;
40465;Laerm;30489;48.982;8.394;2023-05-29T03:40:25;45.58;40.23;77.15;;
40465;Laerm;30489;48.982;8.394;2023-05-29T03:42:35;41.60;40.23;42.98;;
40465;Laerm;30489;48.982;8.394;2023-05-29T03:44:46;41.58;40.33;42.65;;
40465;Laerm;30489;48.982;8.394;2023-05-29T03:46:56;41.55;40.33;42.76;;
40465;Laerm;30489;48.982;8.394;2023-05-29T03:49:06;41.62;40.23;59.92;;
40465;Laerm;30489;48.982;8.394;2023-05-29T03:51:17;41.53;39.99;42.71;;
40465;Laerm;30489;48.982;8.394;2023-05-29T03:53:27;41.53;40.03;42.82;;
40465;Laerm;30489;48.982;8.394;2023-05-29T03:55:37;41.50;40.13;42.59;;
40465;Laerm;30489;48.982;8.394;2023-05-29T03:57:47;41.46;39.92;42.65;;
40465;Laerm;30489;48.982;8.394;2023-05-29T03:59:58;41.45;40.23;42.59;;
40465;Laerm;30489;48.982;8.394;2023-05-29T04:02:08;41.44;40.13;42.41;;
40465;Laerm;30489;48.982;8.394;2023-05-29T04:04:18;41.42;40.13;42.53;;
40465;Laerm;30489;48.982;8.394;2023-05-29T04:06:28;41.40;40.13;42.53;;
40465;Laerm;30489;48.982;8.394;2023-05-29T04:08:39;41.37;39.78;42.71;;
40465;Laerm;30489;48.982;8.394;2023-05-29T04:10:50;41.35;40.03;42.53;;
40465;Laerm;30489;48.982;8.394;2023-05-29T04:13:03;41.33;40.03;42.53;;
40465;Laerm;30489;48.982;8.394;2023-05-29T04:15:13;41.30;39.81;42.47;;
40465;Laerm;30489;48.982;8.394;2023-05-29T04:17:24;41.26;39.92;42.35;;
40465;Laerm;30489;48.982;8.394;2023-05-29T04:19:34;41.29;39.92;42.82;;
40465;Laerm;30489;48.982;8.394;2023-05-29T04:21:44;41.27;39.92;42.35;;
40465;Laerm;30489;48.982;8.394;2023-05-29T04:23:57;41.27;40.03;42.41;;
40465;Laerm;30489;48.982;8.394;2023-05-29T04:26:07;41.27;39.92;42.59;;
40465;Laerm;30489;48.982;8.394;2023-05-29T04:28:17;41.27;40.03;43.14;;
40465;Laerm;30489;48.982;8.394;2023-05-29T04:30:30;41.25;39.92;42.53;;
40465;Laerm;30489;48.982;8.394;2023-05-29T04:32:42;41.27;39.92;42.41;;
40465;Laerm;30489;48.982;8.394;2023-05-29T04:34:53;41.28;39.92;47.26;;
40465;Laerm;30489;48.982;8.394;2023-05-29T04:37:03;41.27;39.92;42.59;;
40465;Laerm;30489;48.982;8.394;2023-05-29T04:39:13;41.29;39.58;49.81;;
40465;Laerm;30489;48.982;8.394;2023-05-29T04:41:24;41.28;39.92;47.82;;
40465;Laerm;30489;48.982;8.394;2023-05-29T04:43:39;41.28;40.03;45.83;;
40465;Laerm;30489;48.982;8.394;2023-05-29T04:45:50;41.32;40.13;42.59;;
40465;Laerm;30489;48.982;8.394;2023-05-29T04:48:01;41.31;40.03;43.34;;
40465;Laerm;30489;48.982;8.394;2023-05-29T04:50:14;41.31;39.81;46.10;;
40465;Laerm;30489;48.982;8.394;2023-05-29T04:52:24;41.31;40.13;42.35;;
40465;Laerm;30489;48.982;8.394;2023-05-29T04:54:35;41.34;39.78;42.93;;
40465;Laerm;30489;48.982;8.394;2023-05-29T04:56:45;41.34;39.70;42.47;;
40465;Laerm;30489;48.982;8.394;2023-05-29T04:58:56;41.33;39.92;49.55;;
40465;Laerm;30489;48.982;8.394;2023-05-29T05:01:08;41.30;39.92;42.65;;
40465;Laerm;30489;48.982;8.394;2023-05-29T05:03:19;41.30;40.13;42.41;;
40465;Laerm;30489;48.982;8.394;2023-05-29T05:05:29;41.36;40.23;42.53;;
40465;Laerm;30489;48.982;8.394;2023-05-29T05:07:39;41.34;40.03;42.47;;
40465;Laerm;30489;48.982;8.394;2023-05-29T05:09:50;41.36;39.92;42.47;;
40465;Laerm;30489;48.982;8.394;2023-05-29T05:12:00;41.36;40.13;43.09;;
40465;Laerm;30489;48.982;8.394;2023-05-29T05:14:11;41.36;40.08;42.47;;
40465;Laerm;30489;48.982;8.394;2023-05-29T05:16:21;41.39;39.92;42.41;;
40465;Laerm;30489;48.982;8.394;2023-05-29T05:18:31;41.42;40.03;42.53;;
40465;Laerm;30489;48.982;8.394;2023-05-29T05:20:41;41.45;40.03;42.65;;
40465;Laerm;30489;48.982;8.394;2023-05-29T05:22:52;41.45;40.03;42.47;;
40465;Laerm;30489;48.982;8.394;2023-05-29T05:25:02;41.45;40.13;42.59;;
40465;Laerm;30489;48.982;8.394;2023-05-29T05:27:14;41.45;39.92;42.65;;
40465;Laerm;30489;48.982;8.394;2023-05-29T05:29:24;41.43;39.89;42.59;;
40465;Laerm;30489;48.982;8.394;2023-05-29T05:31:34;41.47;40.13;43.86;;
40465;Laerm;30489;48.982;8.394;2023-05-29T05:33:44;41.50;39.92;42.59;;
40465;Laerm;30489;48.982;8.394;2023-05-29T05:35:55;41.49;39.92;42.59;;
40465;Laerm;30489;48.982;8.394;2023-05-29T05:38:06;41.49;40.13;42.65;;
40465;Laerm;30489;48.982;8.394;2023-05-29T05:40:16;41.51;39.99;42.53;;
40465;Laerm;30489;48.982;8.394;2023-05-29T05:42:26;41.51;40.23;42.82;;
40465;Laerm;30489;48.982;8.394;2023-05-29T05:44:36;41.51;39.92;49.62;;
40465;Laerm;30489;48.982;8.394;2023-05-29T05:46:50;41.51;40.13;42.53;;
40465;Laerm;30489;48.982;8.394;2023-05-29T05:49:00;41.56;40.27;42.71;;
40465;Laerm;30489;48.982;8.394;2023-05-29T05:51:10;41.56;40.27;42.65;;
40465;Laerm;30489;48.982;8.394;2023-05-29T05:53:21;41.59;40.33;42.88;;
40465;Laerm;30489;48.982;8.394;2023-05-29T05:55:32;41.60;40.03;42.59;;
40465;Laerm;30489;48.982;8.394;2023-05-29T05:57:42;41.64;40.33;42.76;;
40465;Laerm;30489;48.982;8.394;2023-05-29T05:59:52;41.64;40.03;42.59;;
40465;Laerm;30489;48.982;8.394;2023-05-29T06:02:03;41.67;40.23;42.71;;
40465;Laerm;30489;48.982;8.394;2023-05-29T06:04:13;41.65;40.33;42.71;;
40465;Laerm;30489;48.982;8.394;2023-05-29T06:06:24;41.68;40.43;42.76;;
40465;Laerm;30489;48.982;8.394;2023-05-29T06:08:34;41.71;40.33;42.82;;
40465;Laerm;30489;48.982;8.394;2023-05-29T06:10:45;41.74;40.53;42.88;;
40465;Laerm;30489;48.982;8.394;2023-05-29T06:12:55;41.75;40.13;42.93;;
40465;Laerm;30489;48.982;8.394;2023-05-29T06:15:05;41.76;40.62;43.09;;
40465;Laerm;30489;48.982;8.394;2023-05-29T06:17:17;41.78;40.53;42.93;;
40465;Laerm;30489;48.982;8.394;2023-05-29T06:19:27;41.80;40.71;43.04;;
40465;Laerm;30489;48.982;8.394;2023-05-29T06:21:37;41.81;40.53;42.88;;
40465;Laerm;30489;48.982;8.394;2023-05-29T06:23:47;41.84;40.43;42.88;;
40465;Laerm;30489;48.982;8.394;2023-05-29T06:25:57;41.86;40.43;42.98;;
40465;Laerm;30489;48.982;8.394;2023-05-29T06:28:08;41.87;40.53;43.09;;
40465;Laerm;30489;48.982;8.394;2023-05-29T06:30:18;41.89;40.80;43.04;;
40465;Laerm;30489;48.982;8.394;2023-05-29T06:32:28;41.93;40.80;42.88;;
40465;Laerm;30489;48.982;8.394;2023-05-29T06:34:38;41.95;40.43;42.93;;
40465;Laerm;30489;48.982;8.394;2023-05-29T06:36:49;41.98;40.62;43.04;;
40465;Laerm;30489;48.982;8.394;2023-05-29T06:38:59;41.98;40.79;43.19;;
40465;Laerm;30489;48.982;8.394;2023-05-29T06:41:09;42.03;40.80;43.19;;
40465;Laerm;30489;48.982;8.394;2023-05-29T06:43:19;42.03;40.71;43.04;;
40465;Laerm;30489;48.982;8.394;2023-05-29T06:45:30;42.05;40.80;43.29;;
40465;Laerm;30489;48.982;8.394;2023-05-29T06:47:43;42.07;40.80;43.04;;
40465;Laerm;30489;48.982;8.394;2023-05-29T06:49:53;42.06;40.98;43.29;;
40465;Laerm;30489;48.982;8.394;2023-05-29T06:52:03;42.08;40.71;43.09;;
40465;Laerm;30489;48.982;8.394;2023-05-29T06:54:14;42.09;40.89;43.29;;
40465;Laerm;30489;48.982;8.394;2023-05-29T06:56:24;42.08;40.71;43.34;;
40465;Laerm;30489;48.982;8.394;2023-05-29T06:58:35;42.11;40.71;43.39;;
40465;Laerm;30489;48.982;8.394;2023-05-29T07:00:46;42.11;40.80;43.24;;
40465;Laerm;30489;48.982;8.394;2023-05-29T07:02:56;42.09;40.98;43.14;;
40465;Laerm;30489;48.982;8.394;2023-05-29T07:05:06;42.09;40.80;43.34;;
40465;Laerm;30489;48.982;8.394;2023-05-29T07:07:17;42.09;40.80;43.14;;
40465;Laerm;30489;48.982;8.394;2023-05-29T07:09:27;42.09;40.89;43.29;;
40465;Laerm;30489;48.982;8.394;2023-05-29T07:11:38;42.09;40.88;43.19;;
40465;Laerm;30489;48.982;8.394;2023-05-29T07:13:48;42.10;40.89;43.19;;
40465;Laerm;30489;48.982;8.394;2023-05-29T07:15:58;42.10;40.89;43.29;;
40465;Laerm;30489;48.982;8.394;2023-05-29T07:18:08;42.10;40.62;43.29;;
40465;Laerm;30489;48.982;8.394;2023-05-29T07:20:18;42.11;40.71;43.14;;
40465;Laerm;30489;48.982;8.394;2023-05-29T07:22:30;42.10;40.98;43.14;;
40465;Laerm;30489;48.982;8.394;2023-05-29T07:24:40;42.10;40.71;43.14;;
40465;Laerm;30489;48.982;8.394;2023-05-29T07:26:50;42.12;40.89;43.24;;
40465;Laerm;30489;48.982;8.394;2023-05-29T07:29:01;42.12;40.71;43.19;;
40465;Laerm;30489;48.982;8.394;2023-05-29T07:31:11;42.11;40.98;43.24;;
40465;Laerm;30489;48.982;8.394;2023-05-29T07:33:21;42.11;40.71;43.14;;
40465;Laerm;30489;48.982;8.394;2023-05-29T07:35:31;42.10;40.98;43.14;;
40465;Laerm;30489;48.982;8.394;2023-05-29T07:37:43;42.10;40.89;43.19;;
40465;Laerm;30489;48.982;8.394;2023-05-29T07:39:53;42.09;40.71;43.24;;
40465;Laerm;30489;48.982;8.394;2023-05-29T07:42:03;42.11;40.71;43.09;;
40465;Laerm;30489;48.982;8.394;2023-05-29T07:44:15;42.10;40.89;43.09;;
40465;Laerm;30489;48.982;8.394;2023-05-29T07:46:25;42.08;40.62;43.19;;
40465;Laerm;30489;48.982;8.394;2023-05-29T07:48:36;42.09;40.89;43.19;;
40465;Laerm;30489;48.982;8.394;2023-05-29T07:50:46;42.08;40.80;43.24;;
40465;Laerm;30489;48.982;8.394;2023-05-29T07:52:57;42.10;40.71;43.24;;
40465;Laerm;30489;48.982;8.394;2023-05-29T07:55:07;42.10;40.79;43.19;;
40465;Laerm;30489;48.982;8.394;2023-05-29T07:57:17;42.10;40.80;43.04;;
40465;Laerm;30489;48.982;8.394;2023-05-29T07:59:28;42.13;40.71;43.19;;
40465;Laerm;30489;48.982;8.394;2023-05-29T08:01:38;42.10;40.89;43.33;;
40465;Laerm;30489;48.982;8.394;2023-05-29T08:03:53;42.11;40.71;43.29;;
40465;Laerm;30489;48.982;8.394;2023-05-29T08:06:03;42.08;40.71;43.14;;
40465;Laerm;30489;48.982;8.394;2023-05-29T08:08:14;42.10;40.80;43.14;;
40465;Laerm;30489;48.982;8.394;2023-05-29T08:10:25;42.09;40.43;43.29;;
40465;Laerm;30489;48.982;8.394;2023-05-29T08:12:35;42.11;40.88;43.14;;
40465;Laerm;30489;48.982;8.394;2023-05-29T08:14:46;42.10;40.80;43.19;;
40465;Laerm;30489;48.982;8.394;2023-05-29T08:16:56;42.10;40.43;43.14;;
40465;Laerm;30489;48.982;8.394;2023-05-29T08:19:06;42.09;40.71;43.29;;
40465;Laerm;30489;48.982;8.394;2023-05-29T08:21:16;42.09;40.80;43.29;;
40465;Laerm;30489;48.982;8.394;2023-05-29T08:23:26;42.10;40.62;43.19;;
40465;Laerm;30489;48.982;8.394;2023-05-29T08:25:37;42.10;40.53;43.19;;
40465;Laerm;30489;48.982;8.394;2023-05-29T08:27:47;42.11;40.53;43.24;;
40465;Laerm;30489;48.982;8.394;2023-05-29T08:29:57;42.07;40.80;43.09;;
40465;Laerm;30489;48.982;8.394;2023-05-29T08:32:07;42.08;40.43;43.19;;
40465;Laerm;30489;48.982;8.394;2023-05-29T08:34:18;42.07;40.80;43.09;;
40465;Laerm;30489;48.982;8.394;2023-05-29T08:36:28;42.06;40.71;44.42;;
40465;Laerm;30489;48.982;8.394;2023-05-29T08:38:38;42.04;40.80;43.09;;
40465;Laerm;30489;48.982;8.394;2023-05-29T08:40:48;42.06;40.43;43.19;;
40465;Laerm;30489;48.982;8.394;2023-05-29T08:45:28;42.07;40.80;43.34;;
40465;Laerm;30489;48.982;8.394;2023-05-29T08:47:39;42.08;40.80;43.14;;
40465;Laerm;30489;48.982;8.394;2023-05-29T08:49:53;42.03;40.71;43.24;;
40465;Laerm;30489;48.982;8.394;2023-05-29T08:52:16;42.03;40.23;43.29;;
40465;Laerm;30489;48.982;8.394;2023-05-29T08:54:30;42.04;40.62;43.19;;
40465;Laerm;30489;48.982;8.394;2023-05-29T08:56:41;42.04;40.80;43.19;;
40465;Laerm;30489;48.982;8.394;2023-05-29T08:58:51;42.04;40.71;43.14;;
40465;Laerm;30489;48.982;8.394;2023-05-29T09:01:02;42.04;40.71;43.29;;
40465;Laerm;30489;48.982;8.394;2023-05-29T09:03:12;42.04;40.80;43.14;;
40465;Laerm;30489;48.982;8.394;2023-05-29T09:05:23;42.02;40.89;43.44;;
40465;Laerm;30489;48.982;8.394;2023-05-29T09:07:33;41.99;40.62;43.14;;
40465;Laerm;30489;48.982;8.394;2023-05-29T09:09:44;41.98;40.53;43.14;;
40465;Laerm;30489;48.982;8.394;2023-05-29T09:11:55;41.97;40.43;43.19;;
40465;Laerm;30489;48.982;8.394;2023-05-29T09:14:07;41.98;40.54;43.14;;
40465;Laerm;30489;48.982;8.394;2023-05-29T09:16:21;41.99;40.62;43.29;;
40465;Laerm;30489;48.982;8.394;2023-05-29T09:18:32;41.96;40.43;43.24;;
40465;Laerm;30489;48.982;8.394;2023-05-29T09:20:42;41.99;40.62;43.19;;
40465;Laerm;30489;48.982;8.394;2023-05-29T09:22:56;41.99;40.53;43.14;;
40465;Laerm;30489;48.982;8.394;2023-05-29T09:25:07;41.95;40.53;43.00;;
40465;Laerm;30489;48.982;8.394;2023-05-29T09:27:18;41.96;40.62;43.29;;
40465;Laerm;30489;48.982;8.394;2023-05-29T09:29:30;41.95;40.33;44.69;;
40465;Laerm;30489;48.982;8.394;2023-05-29T09:31:45;41.93;40.43;43.34;;
40465;Laerm;30489;48.982;8.394;2023-05-29T09:33:56;41.92;40.13;43.05;;
40465;Laerm;30489;48.982;8.394;2023-05-29T09:36:18;41.91;40.53;43.09;;
40465;Laerm;30489;48.982;8.394;2023-05-29T09:38:29;41.92;40.43;43.14;;
40465;Laerm;30489;48.982;8.394;2023-05-29T09:40:40;41.92;40.53;43.04;;
40465;Laerm;30489;48.982;8.394;2023-05-29T09:42:50;41.88;40.43;42.93;;
40465;Laerm;30489;48.982;8.394;2023-05-29T09:45:00;41.84;40.33;42.98;;
40465;Laerm;30489;48.982;8.394;2023-05-29T09:47:19;41.88;40.53;43.04;;
40465;Laerm;30489;48.982;8.394;2023-05-29T09:49:31;41.86;40.43;42.98;;
40465;Laerm;30489;48.982;8.394;2023-05-29T09:51:41;41.83;40.33;43.19;;
40465;Laerm;30489;48.982;8.394;2023-05-29T09:53:52;41.83;40.23;43.04;;
40465;Laerm;30489;48.982;8.394;2023-05-29T09:56:03;41.81;40.13;43.58;;
40465;Laerm;30489;48.982;8.394;2023-05-29T09:58:14;41.74;40.23;42.98;;
40465;Laerm;30489;48.982;8.394;2023-05-29T10:00:25;41.74;40.23;43.04;;
40465;Laerm;30489;48.982;8.394;2023-05-29T10:02:35;41.72;40.03;42.88;;
40465;Laerm;30489;48.982;8.394;2023-05-29T10:04:47;41.75;40.23;42.98;;
40465;Laerm;30489;48.982;8.394;2023-05-29T10:07:00;41.76;40.33;43.04;;
40465;Laerm;30489;48.982;8.394;2023-05-29T10:09:14;41.72;40.33;44.27;;
40465;Laerm;30489;48.982;8.394;2023-05-29T10:11:25;41.73;39.81;42.98;;
40465;Laerm;30489;48.982;8.394;2023-05-29T10:13:41;41.71;40.33;43.19;;
40465;Laerm;30489;48.982;8.394;2023-05-29T10:15:52;41.71;40.43;42.88;;
40465;Laerm;30489;48.982;8.394;2023-05-29T10:18:11;41.73;40.23;43.04;;
40465;Laerm;30489;48.982;8.394;2023-05-29T10:20:23;41.66;40.13;42.82;;
40465;Laerm;30489;48.982;8.394;2023-05-29T10:22:35;41.69;40.03;42.93;;
40465;Laerm;30489;48.982;8.394;2023-05-29T10:24:49;41.70;40.33;42.93;;
40465;Laerm;30489;48.982;8.394;2023-05-29T10:27:00;41.70;40.23;42.93;;
40465;Laerm;30489;48.982;8.394;2023-05-29T10:31:29;41.58;39.70;43.19;;
40465;Laerm;30489;48.982;8.394;2023-05-29T10:33:52;41.62;40.03;43.29;;
40465;Laerm;30489;48.982;8.394;2023-05-29T10:36:12;41.59;39.81;43.81;;
40465;Laerm;30489;48.982;8.394;2023-05-29T10:38:23;41.52;39.92;42.76;;
40465;Laerm;30489;48.982;8.394;2023-05-29T10:40:34;41.54;40.13;42.82;;
40465;Laerm;30489;48.982;8.394;2023-05-29T10:42:49;41.53;40.03;42.82;;
40465;Laerm;30489;48.982;8.394;2023-05-29T10:45:02;41.51;39.81;43.04;;
40465;Laerm;30489;48.982;8.394;2023-05-29T10:47:12;41.47;39.70;43.24;;
40465;Laerm;30489;48.982;8.394;2023-05-29T10:49:32;41.49;39.81;45.01;;
40465;Laerm;30489;48.982;8.394;2023-05-29T10:51:42;41.43;39.58;42.98;;
40465;Laerm;30489;48.982;8.394;2023-05-29T10:53:53;41.47;39.92;45.23;;
40465;Laerm;30489;48.982;8.394;2023-05-29T10:56:03;41.50;39.58;47.84;;
40465;Laerm;30489;48.982;8.394;2023-05-29T10:58:18;41.44;39.58;42.82;;
40465;Laerm;30489;48.982;8.394;2023-05-29T11:00:28;41.45;39.70;42.76;;
40465;Laerm;30489;48.982;8.394;2023-05-29T11:02:39;41.41;39.70;42.71;;
40465;Laerm;30489;48.982;8.394;2023-05-29T11:05:03;41.41;39.46;42.93;;
40465;Laerm;30489;48.982;8.394;2023-05-29T11:07:33;41.41;39.70;42.65;;
40465;Laerm;30489;48.982;8.394;2023-05-29T11:09:44;41.40;39.70;45.04;;
40465;Laerm;30489;48.982;8.394;2023-05-29T11:14:21;41.37;39.70;46.78;;
40465;Laerm;30489;48.982;8.394;2023-05-29T11:18:42;41.27;39.34;42.93;;
40465;Laerm;30489;48.982;8.394;2023-05-29T11:20:57;41.28;39.46;42.76;;
40465;Laerm;30489;48.982;8.394;2023-05-29T11:23:07;41.33;39.81;42.59;;
40465;Laerm;30489;48.982;8.394;2023-05-29T11:25:19;41.29;39.70;43.86;;
40465;Laerm;30489;48.982;8.394;2023-05-29T11:27:30;41.24;39.21;43.58;;
40465;Laerm;30489;48.982;8.394;2023-05-29T11:29:41;41.22;39.34;42.98;;
40465;Laerm;30489;48.982;8.394;2023-05-29T11:31:54;41.18;39.34;42.88;;
40465;Laerm;30489;48.982;8.394;2023-05-29T11:34:08;41.20;39.34;42.98;;
40465;Laerm;30489;48.982;8.394;2023-05-29T11:36:21;41.16;39.34;42.53;;
40465;Laerm;30489;48.982;8.394;2023-05-29T11:38:31;41.17;39.46;43.44;;
40465;Laerm;30489;48.982;8.394;2023-05-29T11:40:41;41.20;39.21;46.54;;
40465;Laerm;30489;48.982;8.394;2023-05-29T11:42:51;41.22;39.46;43.44;;
40465;Laerm;30489;48.982;8.394;2023-05-29T11:45:16;41.21;39.46;42.76;;
40465;Laerm;30489;48.982;8.394;2023-05-29T11:47:26;41.18;39.21;46.13;;
40465;Laerm;30489;48.982;8.394;2023-05-29T11:49:37;41.14;39.34;46.10;;
40465;Laerm;30489;48.982;8.394;2023-05-29T11:51:47;41.14;39.46;44.76;;
40465;Laerm;30489;48.982;8.394;2023-05-29T11:53:58;41.11;39.46;42.82;;
40465;Laerm;30489;48.982;8.394;2023-05-29T11:56:11;41.10;39.34;42.71;;
40465;Laerm;30489;48.982;8.394;2023-05-29T11:58:22;41.08;39.08;42.53;;
40465;Laerm;30489;48.982;8.394;2023-05-29T12:00:33;41.07;39.21;43.09;;
40465;Laerm;30489;48.982;8.394;2023-05-29T12:02:43;41.14;39.46;46.59;;
40465;Laerm;30489;48.982;8.394;2023-05-29T12:05:02;41.08;39.34;44.23;;
40465;Laerm;30489;48.982;8.394;2023-05-29T12:07:17;41.03;39.08;42.53;;
40465;Laerm;30489;48.982;8.394;2023-05-29T12:09:28;41.05;39.21;42.65;;
40465;Laerm;30489;48.982;8.394;2023-05-29T12:11:39;41.06;39.21;42.76;;
40465;Laerm;30489;48.982;8.394;2023-05-29T12:13:58;41.06;39.34;42.98;;
40465;Laerm;30489;48.982;8.394;2023-05-29T12:16:12;41.01;39.34;42.76;;
40465;Laerm;30489;48.982;8.394;2023-05-29T12:18:22;41.01;39.21;43.19;;
40465;Laerm;30489;48.982;8.394;2023-05-29T12:20:32;41.00;39.08;43.24;;
40465;Laerm;30489;48.982;8.394;2023-05-29T12:22:44;41.00;39.21;42.41;;
40465;Laerm;30489;48.982;8.394;2023-05-29T12:24:55;41.03;39.34;43.58;;
40465;Laerm;30489;48.982;8.394;2023-05-29T12:27:05;41.04;38.81;42.82;;
40465;Laerm;30489;48.982;8.394;2023-05-29T12:29:17;41.02;39.21;42.41;;
40465;Laerm;30489;48.982;8.394;2023-05-29T12:31:27;41.00;39.08;42.93;;